Time;durP1;ratioP1;P1;durP2;ratioP2;P2;SDS_P1;SDS_P2;PMS_P1;PMS_P2;Temp;Humidity;BMP_temperature;BMP_pressure;BME280_temperature;BME280_humidity;BME280_pressure;Samples;Min_cycle;Max_cycle;Signal;HPM_P1;HPM_P2
2022/09/20 00:01:34;;;;;;;6.93;1.23;;;;;;;10.50;100.00;102210.22;2613110;36;20436;-51
2022/09/20 00:04:05;;;;;;;4.70;1.70;;;;;;;10.54;100.00;102202.78;2614614;36;20064;-51
2022/09/20 00:06:36;;;;;;;4.32;1.40;;;;;;;10.54;100.00;102208.19;2613560;36;20034;-53
2022/09/20 00:09:05;;;;;;;4.32;2.28;;;;;;;10.57;100.00;102207.97;2612137;36;20463;-53
2022/09/20 00:11:35;;;;;;;3.08;1.25;;;;;;;10.50;100.00;102210.22;2611673;31;20038;-52
2022/09/20 00:14:07;;;;;;;5.82;1.25;;;;;;;10.51;100.00;102210.13;2611615;31;20555;-53
2022/09/20 00:16:40;;;;;;;2.45;1.10;;;;;;;10.58;100.00;102209.69;2614990;36;20069;-54
2022/09/20 00:19:09;;;;;;;4.70;1.50;;;;;;;10.62;100.00;102211.22;2615057;36;20038;-51
2022/09/20 00:21:40;;;;;;;3.47;1.50;;;;;;;10.66;100.00;102199.28;2612169;36;20440;-50
2022/09/20 00:24:09;;;;;;;5.63;1.40;;;;;;;10.64;100.00;102195.81;2611227;36;20037;-49
2022/09/20 00:26:37;;;;;;;5.32;1.27;;;;;;;10.61;100.00;102196.03;2613799;36;20649;-53
2022/09/20 00:29:06;;;;;;;4.25;1.23;;;;;;;10.58;100.00;102198.94;2610599;36;20543;-51
2022/09/20 00:31:35;;;;;;;;;;;;;;;10.70;100.00;102198.09;2611545;36;20034;-51
2022/09/20 00:36:47;;;;;;;6.00;1.70;;;;;;;10.54;100.00;102192.91;2612386;31;20197;-53
2022/09/20 00:39:17;;;;;;;3.22;1.33;;;;;;;10.52;100.00;102198.38;2612164;36;20030;-51
2022/09/20 00:41:46;;;;;;;4.03;1.52;;;;;;;10.49;100.00;102198.56;2611755;36;20035;-51
2022/09/20 00:44:44;;;;;;;7.57;1.30;;;;;;;10.55;100.00;102199.16;2611438;31;20035;-52
2022/09/20 00:47:23;;;;;;;3.97;1.35;;;;;;;10.55;100.00;102194.59;2612859;31;20030;-49
2022/09/20 00:49:55;;;;;;;2.17;1.30;;;;;;;10.39;100.00;102194.78;2611926;36;20567;-51
2022/09/20 00:52:26;;;;;;;5.63;1.63;;;;;;;10.45;100.00;102204.28;2611692;36;23374;-53
2022/09/20 00:54:55;;;;;;;2.55;1.10;;;;;;;10.48;100.00;102201.38;2611668;36;20566;-50
2022/09/20 00:57:24;;;;;;;;;;;;;;;10.53;100.00;102196.56;2612055;36;20037;-53
2022/09/20 00:59:55;;;;;;;3.33;1.40;;;;;;;10.60;100.00;102197.00;2611695;36;19942;-52
2022/09/20 01:02:29;;;;;;;4.07;1.50;;;;;;;10.68;100.00;102200.03;2611819;36;20042;-49
2022/09/20 01:04:58;;;;;;;3.85;1.55;;;;;;;10.68;100.00;102200.03;2611626;36;20570;-51
2022/09/20 01:07:30;;;;;;;4.28;1.20;;;;;;;10.62;100.00;102198.63;2611734;36;20058;-50
2022/09/20 01:09:58;;;;;;;5.43;1.70;;;;;;;10.59;100.00;102212.28;2611930;36;20067;-50
2022/09/20 01:12:31;;;;;;;4.65;1.20;;;;;;;10.59;100.00;102200.66;2611117;36;20038;-51
2022/09/20 01:15:02;;;;;;;3.20;1.48;;;;;;;10.47;100.00;102202.34;2612566;36;20038;-54
2022/09/20 01:17:34;;;;;;;3.33;1.73;;;;;;;10.39;100.00;102194.78;2613058;36;20038;-53
2022/09/20 01:20:13;;;;;;;4.60;1.77;;;;;;;10.37;100.00;102202.09;2612765;36;20045;-49
2022/09/20 01:22:54;;;;;;;2.45;1.35;;;;;;;10.37;100.00;102202.09;2612885;36;20038;-51
2022/09/20 01:25:38;;;;;;;5.20;1.95;;;;;;;10.46;100.00;102198.78;2612638;36;20844;-51
2022/09/20 01:28:09;;;;;;;5.13;1.80;;;;;;;10.43;100.00;102199.00;2612031;36;20034;-51
2022/09/20 01:30:42;;;;;;;6.75;1.95;;;;;;;10.43;100.00;102195.44;2612075;36;20069;-55
2022/09/20 01:33:17;;;;;;;3.25;2.10;;;;;;;10.39;100.00;102194.78;2611177;36;20088;-56
2022/09/20 01:35:48;;;;;;;5.80;2.00;;;;;;;10.42;100.00;102199.94;2591028;36;20034;-54
2022/09/20 01:38:31;;;;;;;7.88;2.30;;;;;;;10.40;100.00;102196.50;2613453;36;20064;-52
2022/09/20 01:41:06;;;;;;;9.00;2.60;;;;;;;10.44;100.00;102198.03;2614719;36;20057;-51
2022/09/20 01:43:44;;;;;;;6.75;2.35;;;;;;;10.38;100.00;102203.81;2616562;36;20035;-53
2022/09/20 01:46:32;;;;;;;5.50;2.50;;;;;;;10.46;100.00;102193.41;2614087;36;20427;-54
2022/09/20 01:49:12;;;;;;;4.88;1.83;;;;;;;10.54;100.00;102192.91;2611906;36;20647;-54
2022/09/20 01:52:13;;;;;;;4.65;2.17;;;;;;;10.50;100.00;102194.91;2611494;36;20034;-53
2022/09/20 01:55:17;;;;;;;4.35;2.38;;;;;;;10.55;100.00;102199.16;2611114;36;20135;-53
2022/09/20 01:58:11;;;;;;;4.82;2.22;;;;;;;10.58;100.00;102196.25;2611935;36;20030;-51
2022/09/20 02:00:57;;;;;;;6.40;1.75;;;;;;;10.68;100.00;102194.66;2611117;36;20053;-52
2022/09/20 02:03:55;;;;;;;8.75;2.05;;;;;;;10.69;100.00;102191.00;2613593;36;20428;-54
2022/09/20 02:06:48;;;;;;;3.85;1.73;;;;;;;10.72;100.00;102195.28;2613819;36;20059;-54
2022/09/20 02:09:49;;;;;;;3.92;2.10;;;;;;;10.79;100.00;102199.31;2609874;36;20034;-49
2022/09/20 02:12:54;;;;;;;9.80;2.05;;;;;;;10.78;100.00;102192.22;2612587;36;20106;-53
2022/09/20 02:15:42;;;;;;;5.32;2.08;;;;;;;10.71;100.00;102186.38;2613499;36;20030;-52
2022/09/20 02:18:26;;;;;;;4.47;2.22;;;;;;;10.74;100.00;102188.00;2611990;31;20053;-54
2022/09/20 02:21:02;;;;;;;5.60;1.90;;;;;;;10.75;100.00;102195.09;2616132;36;20030;-52
2022/09/20 02:23:42;;;;;;;8.15;2.03;;;;;;;10.74;100.00;102188.84;2608015;36;20030;-50
2022/09/20 02:26:33;;;;;;;6.88;2.00;;;;;;;10.74;100.00;102188.84;2612933;36;20023;-51
2022/09/20 02:29:08;;;;;;;4.93;1.90;;;;;;;10.74;100.00;102190.69;2612765;36;20834;-55
2022/09/20 02:31:54;;;;;;;8.32;2.40;;;;;;;10.64;100.00;102193.97;2612230;31;20034;-51
2022/09/20 02:34:57;;;;;;;6.72;2.00;;;;;;;10.76;100.00;102191.44;2612310;36;20026;-53
2022/09/20 02:38:10;;;;;;;10.43;2.58;;;;;;;10.70;100.00;102192.72;2612877;36;20049;-54
2022/09/20 02:41:18;;;;;;;5.22;2.08;;;;;;;10.74;100.00;102190.69;2611538;36;20027;-55
2022/09/20 02:43:53;;;;;;;8.25;2.97;;;;;;;10.71;100.00;102194.44;2611806;36;20031;-50
2022/09/20 02:46:28;;;;;;;8.55;2.22;;;;;;;10.63;100.00;102191.41;2611773;36;20559;-48
2022/09/20 02:49:09;;;;;;;4.03;1.90;;;;;;;10.57;100.00;102191.81;2612585;36;20970;-50
2022/09/20 02:51:42;;;;;;;8.15;3.00;;;;;;;10.56;100.00;102200.88;2612746;36;20036;-52
2022/09/20 02:54:23;;;;;;;6.82;2.65;;;;;;;10.48;100.00;102201.38;2612461;31;20038;-52
2022/09/20 02:57:01;;;;;;;5.57;1.83;;;;;;;10.47;100.00;102197.81;2612809;31;20710;-52
2022/09/20 02:59:41;;;;;;;6.32;2.10;;;;;;;10.38;100.00;102198.44;2613973;36;20026;-51
2022/09/20 03:02:21;;;;;;;4.90;2.40;;;;;;;10.33;100.00;102197.84;2612663;36;20147;-49
2022/09/20 03:05:04;;;;;;;3.05;1.83;;;;;;;10.22;100.00;102203.06;2612287;31;20459;-54
2022/09/20 03:07:47;;;;;;;8.35;2.03;;;;;;;10.15;100.00;102198.09;2612360;36;20026;-53
2022/09/20 03:10:24;;;;;;;6.90;2.00;;;;;;;10.15;100.00;102206.16;2611539;36;20059;-51
2022/09/20 03:13:07;;;;;;;5.35;1.60;;;;;;;10.10;100.00;102197.53;2613159;31;20034;-49
2022/09/20 03:15:46;;;;;;;6.20;1.80;;;;;;;10.06;100.00;102196.00;2612511;36;20038;-54
2022/09/20 03:18:17;;;;;;;;;;;;;;;10.07;100.00;102200.44;2612818;36;20419;-50
2022/09/20 03:20:56;;;;;;;5.55;1.80;;;;;;;10.02;100.00;102190.94;2612350;36;19977;-53
2022/09/20 03:23:43;;;;;;;3.47;2.10;;;;;;;9.86;100.00;102191.06;2612233;36;20034;-52
2022/09/20 03:26:22;;;;;;;5.93;1.70;;;;;;;9.78;100.00;102196.94;2611386;36;20555;-50
2022/09/20 03:29:03;;;;;;;8.40;1.90;;;;;;;9.79;100.00;102199.53;2615748;36;20404;-50
2022/09/20 03:31:51;;;;;;;6.82;1.83;;;;;;;9.74;100.00;102192.69;2613839;31;20022;-56
2022/09/20 03:34:35;;;;;;;6.82;1.80;;;;;;;9.78;100.00;102196.94;2615324;36;20034;-52
2022/09/20 03:37:32;;;;;;;6.18;1.95;;;;;;;9.75;100.00;102200.66;2615470;36;20049;-51
2022/09/20 03:40:29;;;;;;;4.85;2.40;;;;;;;9.70;100.00;102197.44;2613024;36;20034;-50
2022/09/20 03:43:05;;;;;;;2.35;1.70;;;;;;;9.74;100.00;102200.78;2611549;36;20070;-49
2022/09/20 03:45:54;;;;;;;4.32;2.15;;;;;;;9.74;100.00;102204.31;2612130;31;20045;-49
2022/09/20 03:48:37;;;;;;;;;;;;;;;9.80;100.00;102201.25;2612535;36;20026;-49
2022/09/20 03:51:14;;;;;;;7.13;2.30;;;;;;;9.91;100.00;102207.75;2611710;36;20041;-53
2022/09/20 03:54:02;;;;;;;6.25;2.05;;;;;;;10.00;100.00;102204.47;2611801;36;20072;-52
2022/09/20 03:57:02;;;;;;;4.28;2.33;;;;;;;10.17;100.00;102203.38;2612099;36;20045;-51
2022/09/20 03:59:48;;;;;;;6.20;2.30;;;;;;;10.24;100.00;102206.53;2614013;31;20029;-54
2022/09/20 04:02:37;;;;;;;9.07;2.83;;;;;;;10.28;100.00;102208.06;2613386;36;20022;-54
2022/09/20 04:05:11;;;;;;;4.70;2.10;;;;;;;10.33;100.00;102217.59;2612246;36;20073;-55
2022/09/20 04:07:57;;;;;;;4.20;2.30;;;;;;;10.41;100.00;102219.78;2612937;36;20042;-49
2022/09/20 04:10:45;;;;;;;7.70;2.40;;;;;;;10.47;100.00;102229.28;2612813;36;20061;-53
2022/09/20 04:13:35;;;;;;;5.35;2.47;;;;;;;10.56;100.00;102230.50;2612424;31;20034;-53
2022/09/20 04:16:16;;;;;;;4.57;2.38;;;;;;;10.66;100.00;102226.22;2612256;36;20598;-51
2022/09/20 04:18:49;;;;;;;5.55;2.58;;;;;;;10.65;100.00;102222.66;2611236;36;20035;-54
2022/09/20 04:21:23;;;;;;;7.78;2.72;;;;;;;10.78;100.00;102225.38;2611998;36;20455;-53
2022/09/20 04:23:58;;;;;;;5.35;2.45;;;;;;;10.82;100.00;102226.91;2612171;36;20022;-59
2022/09/20 04:26:29;;;;;;;4.38;1.77;;;;;;;10.93;100.00;102219.91;2609728;36;20479;-53
2022/09/20 04:29:13;;;;;;;6.85;2.55;;;;;;;10.86;100.00;102228.44;2604830;36;20033;-50
2022/09/20 04:31:47;;;;;;;4.20;1.90;;;;;;;10.86;100.00;102228.44;2613355;31;20058;-53
2022/09/20 04:34:21;;;;;;;4.30;2.00;;;;;;;10.87;100.00;102221.19;2614342;36;20038;-51
2022/09/20 04:36:58;;;;;;;3.22;1.80;;;;;;;10.95;100.00;102223.34;2614387;36;20503;-51
2022/09/20 04:39:38;;;;;;;7.28;2.10;;;;;;;10.99;100.00;102230.28;2612908;36;20521;-53
2022/09/20 04:42:43;;;;;;;5.53;2.03;;;;;;;10.91;100.00;102229.91;2613513;36;20431;-54
2022/09/20 04:45:57;;;;;;;7.32;2.05;;;;;;;10.90;100.00;102220.13;2611762;31;20034;-50
2022/09/20 04:48:59;;;;;;;6.00;2.38;;;;;;;10.77;100.00;102220.94;2613496;36;20420;-49
2022/09/20 04:51:58;;;;;;;3.15;1.75;;;;;;;10.69;100.00;102224.16;2612495;36;20041;-56
2022/09/20 04:55:11;;;;;;;6.38;2.55;;;;;;;10.63;100.00;102235.34;2615917;36;20037;-52
2022/09/20 04:58:05;;;;;;;8.52;2.53;;;;;;;10.56;100.00;102227.81;2611304;36;20672;-52
2022/09/20 05:00:50;;;;;;;3.90;2.15;;;;;;;10.66;100.00;102229.75;2612783;36;20042;-49
2022/09/20 05:03:48;;;;;;;5.78;2.55;;;;;;;10.75;100.00;102230.09;2611344;36;20631;-53
2022/09/20 05:06:49;;;;;;;6.57;2.42;;;;;;;10.71;100.00;102228.59;2612708;36;20166;-53
2022/09/20 05:09:37;;;;;;;6.38;3.10;;;;;;;10.77;100.00;102226.34;2612189;36;20026;-52
2022/09/20 05:12:33;;;;;;;3.72;2.38;;;;;;;10.82;100.00;102231.41;2611750;31;20595;-52
2022/09/20 05:15:25;;;;;;;7.47;2.85;;;;;;;10.81;100.00;102227.84;2611905;31;20567;-55
2022/09/20 05:18:19;;;;;;;6.63;2.95;;;;;;;10.80;100.00;102226.13;2612511;36;20636;-55
2022/09/20 05:21:06;;;;;;;5.40;2.55;;;;;;;10.89;100.00;102234.56;2612032;31;20046;-53
2022/09/20 05:24:05;;;;;;;4.65;2.60;;;;;;;10.96;100.00;102225.09;2611142;36;20042;-51
2022/09/20 05:26:47;;;;;;;5.05;2.65;;;;;;;10.93;100.00;102228.00;2611141;36;20038;-51
2022/09/20 05:29:23;;;;;;;5.25;2.60;;;;;;;10.91;100.00;102227.22;2611976;36;20083;-55
2022/09/20 05:31:57;;;;;;;7.60;2.65;;;;;;;10.96;100.00;102236.72;2611388;31;20057;-51
2022/09/20 05:34:31;;;;;;;6.72;2.58;;;;;;;10.96;100.00;102234.03;2613334;31;20031;-54
2022/09/20 05:37:10;;;;;;;6.75;2.70;;;;;;;11.15;100.00;102230.09;2613594;36;20044;-54
2022/09/20 05:39:43;;;;;;;6.22;2.58;;;;;;;11.00;100.00;102240.94;2613286;36;20412;-54
2022/09/20 05:42:20;;;;;;;7.03;2.28;;;;;;;11.02;100.00;102252.47;2613911;31;20047;-53
2022/09/20 05:45:08;;;;;;;4.90;3.00;;;;;;;11.05;100.00;102252.25;2612633;36;20035;-53
2022/09/20 05:47:41;;;;;;;8.18;2.53;;;;;;;11.12;100.00;102257.25;2612907;36;20062;-52
2022/09/20 05:50:33;;;;;;;7.63;2.97;;;;;;;11.28;100.00;102268.69;2613398;36;20539;-50
2022/09/20 05:53:16;;;;;;;8.95;3.13;;;;;;;11.34;100.00;102283.56;2613280;36;20100;-53
2022/09/20 05:55:58;;;;;;;5.88;2.70;;;;;;;11.32;100.00;102280.09;2612393;36;20042;-54
2022/09/20 05:58:47;;;;;;;7.93;2.85;;;;;;;11.39;100.00;102285.00;2612707;36;20062;-51
2022/09/20 06:01:21;;;;;;;6.05;2.55;;;;;;;11.48;100.00;102288.84;2614697;36;20108;-51
2022/09/20 06:03:55;;;;;;;8.77;2.75;;;;;;;11.46;100.00;102288.09;2615213;36;20445;-51
2022/09/20 06:06:31;;;;;;;6.60;2.70;;;;;;;11.53;100.00;102296.66;2613808;36;20639;-54
2022/09/20 06:09:24;;;;;;;4.78;2.63;;;;;;;11.64;100.00;102290.50;2615443;36;20022;-53
2022/09/20 06:12:05;;;;;;;6.43;2.25;;;;;;;11.67;100.00;102290.28;2614430;36;20034;-53
2022/09/20 06:14:45;;;;;;;5.43;2.20;;;;;;;11.71;100.00;102297.19;2614568;36;20038;-53
2022/09/20 06:17:24;;;;;;;5.72;1.70;;;;;;;11.77;100.00;102295.88;2616516;36;20023;-51
2022/09/20 06:20:01;;;;;;;5.88;2.38;;;;;;;11.84;100.00;102289.94;2615000;36;20042;-53
2022/09/20 06:22:35;;;;;;;3.42;1.60;;;;;;;11.90;100.00;102286.81;2615918;31;20022;-49
2022/09/20 06:25:16;;;;;;;5.40;1.98;;;;;;;11.84;100.00;102281.00;2611018;36;20046;-55
2022/09/20 06:27:52;;;;;;;3.97;1.73;;;;;;;11.86;100.00;102287.13;2612861;36;20582;-54
2022/09/20 06:30:24;;;;;;;4.35;1.40;;;;;;;11.99;100.00;102281.75;2611749;36;20034;-53
2022/09/20 06:33:00;;;;;;;2.70;1.40;;;;;;;12.06;100.00;102272.25;2585008;36;20042;-55
2022/09/20 06:35:37;;;;;;;4.82;1.80;;;;;;;12.16;100.00;102272.44;2613014;36;20057;-54
2022/09/20 06:43:47;;;;;;;7.00;2.13;;;;;;;12.51;100.00;102277.94;2612644;36;20544;-53
2022/09/20 06:46:16;;;;;;;5.07;2.03;;;;;;;12.60;100.00;102279.09;2612472;31;20053;-53
2022/09/20 06:48:44;;;;;;;7.28;2.55;;;;;;;12.65;100.00;102276.03;2611727;36;20042;-52
2022/09/20 06:51:13;;;;;;;6.82;3.00;;;;;;;12.67;100.00;102274.94;2610879;36;20057;-55
2022/09/20 06:53:43;;;;;;;8.00;3.00;;;;;;;12.77;100.00;102280.53;2633066;36;20038;-49
2022/09/20 06:56:19;;;;;;;9.55;3.72;;;;;;;12.73;100.00;102284.44;2614775;36;20044;-52
2022/09/20 06:58:48;;;;;;;9.38;3.50;;;;;;;12.78;100.00;102291.22;2616176;36;20480;-55
2022/09/20 07:01:16;;;;;;;12.97;3.80;;;;;;;12.90;100.00;102291.28;2615887;36;20074;-54
2022/09/20 07:03:44;;;;;;;12.07;3.30;;;;;;;12.93;100.00;102302.72;2616261;36;20034;-52
2022/09/20 07:06:16;;;;;;;9.50;3.20;;;;;;;13.05;100.00;102306.31;2615167;36;20031;-52
2022/09/20 07:08:45;;;;;;;6.57;3.00;;;;;;;13.16;100.00;102302.78;2615628;36;20654;-54
2022/09/20 07:11:19;;;;;;;11.10;3.00;;;;;;;13.25;100.00;102306.63;2615746;36;20026;-54
2022/09/20 07:13:52;;;;;;;7.07;2.33;;;;;;;13.37;100.00;102300.31;2616646;31;20026;-50
2022/09/20 07:16:21;;;;;;;6.45;2.60;;;;;;;13.51;100.00;102301.09;2615983;36;20065;-52
2022/09/20 07:18:51;;;;;;;5.10;2.67;;;;;;;13.66;100.00;102298.03;2615691;31;20030;-54
2022/09/20 07:21:20;;;;;;;8.85;2.85;;;;;;;13.86;100.00;102306.41;2613525;36;20046;-54
2022/09/20 07:23:50;;;;;;;10.13;2.40;;;;;;;13.87;100.00;102300.03;2613844;36;20110;-53
2022/09/20 07:26:23;;;;;;;6.05;1.98;;;;;;;13.92;100.00;102308.63;2612927;36;20038;-54
2022/09/20 07:28:52;;;;;;;4.97;2.67;;;;;;;13.94;100.00;102303.97;2614798;36;20030;-55
2022/09/20 07:31:23;;;;;;;7.43;2.08;;;;;;;13.93;100.00;102312.22;2610513;36;20038;-53
2022/09/20 07:33:51;;;;;;;5.82;1.60;;;;;;;14.07;100.00;102313.81;2611677;36;20035;-56
2022/09/20 07:36:20;;;;;;;5.53;1.97;;;;;;;14.11;100.00;102313.44;2604859;36;20051;-53
2022/09/20 07:38:50;;;;;;;5.97;2.10;;;;;;;14.13;100.00;102318.72;2611671;31;20057;-55
2022/09/20 07:41:22;;;;;;;6.88;2.22;;;;;;;13.98;100.00;102315.41;2610412;36;20033;-54
2022/09/20 07:43:51;;;;;;;6.13;2.55;;;;;;;13.81;100.00;102320.31;2611930;31;20041;-51
2022/09/20 07:46:22;;;;;;;3.63;1.95;;;;;;;13.61;100.00;102326.44;2614140;36;20848;-52
2022/09/20 07:48:51;;;;;;;5.75;2.03;;;;;;;13.87;100.00;102328.91;2612359;36;20057;-50
2022/09/20 07:51:19;;;;;;;2.92;1.35;;;;;;;14.07;100.00;102330.03;2611368;36;20034;-51
2022/09/20 07:53:48;;;;;;;3.83;1.20;;;;;;;14.02;100.00;102325.84;2612837;36;20034;-50
2022/09/20 07:56:17;;;;;;;4.67;1.27;;;;;;;13.73;100.00;102347.09;2612028;36;20105;-53
2022/09/20 07:58:49;;;;;;;4.13;1.42;;;;;;;13.61;100.00;102343.53;2612983;36;20031;-55
2022/09/20 08:01:18;;;;;;;4.07;1.10;;;;;;;13.85;100.00;102350.69;2611773;36;20038;-51
2022/09/20 08:03:47;;;;;;;1.77;0.82;;;;;;;13.72;100.00;102358.06;2611531;36;20057;-51
2022/09/20 08:06:17;;;;;;;1.77;0.90;;;;;;;13.65;100.00;102358.53;2610019;36;20034;-53
2022/09/20 08:08:46;;;;;;;1.95;0.95;;;;;;;13.62;100.00;102353.38;2611942;36;20049;-52
2022/09/20 08:11:16;;;;;;;3.05;0.90;;;;;;;13.73;100.00;102355.22;2612607;36;20438;-51
2022/09/20 08:13:49;;;;;;;2.35;0.80;;;;;;;13.72;100.00;102353.53;2615661;36;20029;-54
2022/09/20 08:16:18;;;;;;;3.17;1.02;;;;;;;13.78;100.00;102341.31;2615655;36;20049;-50
2022/09/20 08:18:48;;;;;;;3.45;0.73;;;;;;;14.00;100.00;102333.25;2614995;36;20034;-51
2022/09/20 08:21:16;;;;;;;1.92;0.80;;;;;;;13.87;100.00;102335.22;2614241;36;20137;-54
2022/09/20 08:23:47;;;;;;;1.58;0.70;;;;;;;14.31;100.00;102344.31;2614793;36;20408;-54
2022/09/20 08:26:17;;;;;;;3.40;0.90;;;;;;;14.60;100.00;102346.47;2609312;36;20035;-54
2022/09/20 08:28:46;;;;;;;2.42;0.90;;;;;;;14.81;100.00;102340.31;2612676;36;20049;-51
2022/09/20 08:31:19;;;;;;;4.95;0.93;;;;;;;14.94;100.00;102341.00;2612031;36;20037;-50
2022/09/20 08:33:49;;;;;;;4.55;0.80;;;;;;;14.83;100.00;102341.06;2612377;36;20026;-51
2022/09/20 08:36:19;;;;;;;1.42;0.57;;;;;;;14.99;100.00;102349.63;2604834;36;20062;-56
2022/09/20 08:38:48;;;;;;;2.00;0.77;;;;;;;15.06;100.00;102353.56;2612416;36;20022;-54
2022/09/20 08:41:21;;;;;;;3.15;0.57;;;;;;;15.13;100.00;102345.75;2612425;36;20501;-53
2022/09/20 08:43:54;;;;;;;2.70;0.70;;;;;;;15.34;100.00;102348.50;2604033;36;20061;-54
2022/09/20 08:46:28;;;;;;;1.73;0.75;;;;;;;15.26;100.00;102348.28;2610682;36;20074;-52
2022/09/20 08:48:58;;;;;;;2.22;0.77;;;;;;;15.35;100.00;102344.78;2612195;36;20026;-57
2022/09/20 08:51:31;;;;;;;2.58;0.60;;;;;;;15.88;100.00;102340.28;2612035;36;20126;-52
2022/09/20 08:54:03;;;;;;;3.40;0.70;;;;;;;16.17;100.00;102345.03;2612130;36;20042;-55
2022/09/20 08:56:35;;;;;;;3.05;0.80;;;;;;;16.17;100.00;102334.16;2610912;31;20035;-56
2022/09/20 08:59:04;;;;;;;1.02;0.73;;;;;;;16.28;100.00;102329.47;2612815;36;20532;-51
2022/09/20 09:01:35;;;;;;;1.87;0.50;;;;;;;16.20;100.00;102339.31;2611933;36;20034;-52
2022/09/20 09:04:15;;;;;;;1.38;0.50;;;;;;;16.26;100.00;102331.47;2611776;36;20350;-53
2022/09/20 09:06:45;;;;;;;3.47;0.90;;;;;;;16.18;100.00;102328.59;2612653;36;20026;-52
2022/09/20 09:09:21;;;;;;;4.40;1.08;;;;;;;16.38;100.00;102337.66;2611807;36;20575;-52
2022/09/20 09:11:50;;;;;;;4.25;0.52;;;;;;;16.29;100.00;102333.91;2612397;36;20022;-57
2022/09/20 09:17:16;;;;;;;2.55;0.70;;;;;;;16.18;100.00;102346.72;2613405;36;20027;-50
2022/09/20 09:19:46;;;;;;;1.73;0.80;;;;;;;16.36;100.00;102339.66;2615139;36;20042;-53
2022/09/20 09:22:21;;;;;;;2.40;0.60;;;;;;;16.38;100.00;102343.06;2614309;36;20063;-56
2022/09/20 09:25:08;;;;;;;4.85;0.70;;;;;;;16.84;100.00;102343.47;2614169;36;20035;-55
2022/09/20 09:27:37;;;;;;;1.75;0.80;;;;;;;17.09;100.00;102342.13;2614848;36;20046;-52
2022/09/20 09:30:22;;;;;;;5.70;0.70;;;;;;;16.76;100.00;102349.63;2614838;36;20077;-56
2022/09/20 09:32:55;;;;;;;2.22;0.68;;;;;;;17.04;100.00;102347.09;2615675;36;20042;-56
2022/09/20 09:35:27;;;;;;;2.85;0.73;;;;;;;17.04;100.00;102355.25;2615654;36;20539;-53
2022/09/20 09:37:58;;;;;;;2.72;0.90;;;;;;;16.66;100.00;102346.03;2613516;36;20026;-54
2022/09/20 09:40:27;;;;;;;5.65;0.80;;;;;;;16.79;100.00;102357.50;2613992;36;20038;-51
2022/09/20 09:42:57;;;;;;;3.90;1.00;;;;;;;16.81;100.00;102360.94;2613568;31;20405;-54
2022/09/20 09:45:29;;;;;;;4.38;0.70;;;;;;;16.52;100.00;102360.00;2614456;36;20424;-53
2022/09/20 09:48:03;;;;;;;3.92;0.70;;;;;;;16.74;100.00;102357.06;2612364;36;20464;-55
2022/09/20 09:50:34;;;;;;;2.92;0.85;;;;;;;16.98;100.00;102356.69;2612619;36;20035;-52
2022/09/20 09:53:11;;;;;;;3.25;0.90;;;;;;;16.89;100.00;102359.41;2613840;36;20034;-50
2022/09/20 09:56:09;;;;;;;0.45;0.40;;;;;;;16.89;100.00;102357.53;2613727;36;20046;-51
2022/09/20 09:58:57;;;;;;;2.10;0.70;;;;;;;17.31;100.00;102357.28;2611282;36;20034;-51
2022/09/20 10:01:38;;;;;;;1.70;0.63;;;;;;;17.70;100.00;102361.81;2614311;36;20065;-53
2022/09/20 10:04:17;;;;;;;4.68;0.82;;;;;;;18.03;100.00;102363.22;2615906;36;20121;-53
2022/09/20 10:06:52;;;;;;;2.28;0.70;;;;;;;17.99;100.00;102344.56;2615285;36;20039;-52
2022/09/20 10:09:32;;;;;;;2.22;0.60;;;;;;;18.08;100.00;102354.59;2615740;36;20061;-54
2022/09/20 10:12:14;;;;;;;2.13;0.70;;;;;;;18.10;100.00;102352.56;2616326;36;20023;-51
2022/09/20 10:14:59;;;;;;;7.40;0.98;;;;;;;17.58;100.00;102346.63;2612590;31;20027;-54
2022/09/20 10:17:41;;;;;;;2.78;0.70;;;;;;;17.60;100.00;102350.09;2612501;36;20030;-55
2022/09/20 10:20:30;;;;;;;1.23;0.45;;;;;;;17.88;100.00;102352.91;2612510;36;20428;-53
2022/09/20 10:23:02;;;;;;;;;;;;;;;18.06;100.00;102353.84;2614538;36;20579;-53
2022/09/20 10:25:42;;;;;;;6.43;0.95;;;;;;;17.86;100.00;102356.63;2613723;36;19967;-52
2022/09/20 10:28:28;;;;;;;4.22;0.70;;;;;;;17.80;100.00;102346.31;2615052;31;20038;-54
2022/09/20 10:31:08;;;;;;;4.07;0.70;;;;;;;17.26;100.00;102342.41;2613242;36;20031;-50
2022/09/20 10:33:45;;;;;;;4.53;1.10;;;;;;;17.36;100.00;102354.13;2612142;36;20057;-53
2022/09/20 10:36:26;;;;;;;2.80;1.00;;;;;;;17.74;100.00;102351.47;2610281;36;20026;-56
2022/09/20 10:39:02;;;;;;;2.20;0.70;;;;;;;18.28;100.00;102346.31;2607078;36;20061;-54
2022/09/20 10:44:45;;;;;;;3.35;1.38;;;;;;;18.90;100.00;102341.09;2611900;36;20070;-53
2022/09/20 10:47:18;;;;;;;5.57;0.57;;;;;;;18.69;100.00;102341.34;2613907;36;20034;-52
2022/09/20 10:49:57;;;;;;;5.53;1.00;;;;;;;17.99;100.00;102339.09;2614365;36;20030;-49
2022/09/20 10:52:44;;;;;;;0.52;0.50;;;;;;;18.21;100.00;102338.75;2613309;36;20136;-53
2022/09/20 10:55:25;;;;;;;1.92;0.68;;;;;;;18.45;100.00;102339.22;2611991;36;20053;-52
2022/09/20 10:58:29;;;;;;;3.20;0.82;;;;;;;18.76;100.00;102342.47;2612816;36;20463;-50
2022/09/20 11:01:04;;;;;;;5.10;0.88;;;;;;;18.53;100.00;102350.19;2612085;36;20058;-55
2022/09/20 11:03:57;;;;;;;2.33;0.93;;;;;;;18.24;100.00;102345.78;2614452;36;20038;-53
2022/09/20 11:06:38;;;;;;;4.30;1.05;;;;;;;18.15;100.00;102350.25;2614969;36;20042;-53
2022/09/20 11:09:12;;;;;;;2.58;0.73;;;;;;;18.30;100.00;102342.44;2613134;36;20516;-54
2022/09/20 11:11:44;;;;;;;2.60;0.77;;;;;;;18.33;100.00;102346.69;2613474;36;20590;-54
2022/09/20 11:14:18;;;;;;;2.72;0.57;;;;;;;18.21;100.00;102346.91;2614523;31;20041;-55
2022/09/20 11:16:52;;;;;;;2.78;0.70;;;;;;;18.21;100.00;102346.03;2614754;36;20435;-54
2022/09/20 11:19:28;;;;;;;4.65;0.90;;;;;;;18.31;100.00;102346.00;2615501;36;20515;-52
2022/09/20 11:22:02;;;;;;;2.17;0.80;;;;;;;18.10;100.00;102349.81;2616113;36;20038;-57
2022/09/20 11:24:38;;;;;;;1.77;0.70;;;;;;;18.79;100.00;102347.59;2614407;36;20034;-52
2022/09/20 11:27:14;;;;;;;4.07;1.55;;;;;;;19.13;100.00;102346.94;2615321;36;20027;-52
2022/09/20 11:29:46;;;;;;;2.35;0.50;;;;;;;18.73;100.00;102345.50;2614967;36;20583;-54
2022/09/20 11:32:19;;;;;;;4.20;0.90;;;;;;;19.28;100.00;102351.84;2616134;36;20409;-52
2022/09/20 11:34:54;;;;;;;4.75;0.80;;;;;;;19.73;100.00;102343.50;2614488;36;20030;-52
2022/09/20 11:37:27;;;;;;;3.10;0.68;;;;;;;19.05;100.00;102347.72;2614862;36;20595;-55
2022/09/20 11:40:02;;;;;;;2.13;0.57;;;;;;;18.96;100.00;102345.91;2615000;36;20130;-53
2022/09/20 11:42:35;;;;;;;3.05;0.80;;;;;;;18.80;100.00;102356.63;2613449;36;20057;-55
2022/09/20 11:45:05;;;;;;;3.47;0.77;;;;;;;18.50;100.00;102354.06;2614757;36;20108;-51
2022/09/20 11:47:37;;;;;;;3.42;0.98;;;;;;;18.28;100.00;102359.94;2613204;36;20043;-54
2022/09/20 11:50:34;;;;;;;5.95;0.88;;;;;;;17.70;100.00;102359.09;2615568;36;20022;-55
2022/09/20 11:53:16;;;;;;;5.88;0.93;;;;;;;17.42;100.00;102360.88;2614288;36;20038;-53
2022/09/20 11:55:53;;;;;;;3.65;0.95;;;;;;;17.58;100.00;102362.97;2614778;36;20505;-55
2022/09/20 11:58:22;;;;;;;5.65;0.70;;;;;;;17.99;100.00;102366.34;2612144;31;20050;-52
2022/09/20 12:00:54;;;;;;;0.93;0.50;;;;;;;17.99;100.00;102367.22;2613834;36;20034;-54
2022/09/20 12:03:28;;;;;;;4.40;1.08;;;;;;;18.06;100.00;102367.47;2611731;36;20069;-54
2022/09/20 12:06:02;;;;;;;2.47;0.73;;;;;;;18.41;100.00;102365.06;2612641;36;20046;-57
2022/09/20 12:08:33;;;;;;;4.13;0.80;;;;;;;18.71;100.00;102366.59;2612233;36;20034;-52
2022/09/20 12:11:07;;;;;;;4.07;1.00;;;;;;;18.64;100.00;102363.63;2614227;36;20035;-52
2022/09/20 12:13:38;;;;;;;2.38;1.10;;;;;;;19.02;100.00;102358.97;2614231;36;20078;-56
2022/09/20 12:16:10;;;;;;;2.70;0.85;;;;;;;19.35;100.00;102364.72;2615013;36;20027;-56
2022/09/20 12:18:48;;;;;;;4.68;0.80;;;;;;;19.19;100.00;102361.84;2613281;36;20038;-51
2022/09/20 12:21:19;;;;;;;1.85;0.70;;;;;;;19.12;100.00;102361.59;2615956;36;20041;-52
2022/09/20 12:24:24;;;;;;;5.53;1.08;;;;;;;19.38;100.00;102369.00;2615393;36;20038;-55